Weather History for Cape Cod CGAS, MA

Change the Weather History Date:

Tuesday, April 8, 2014

  Actual Average Record
Temperature  
Mean Temperature 52 °F -  
Max Temperature 59 °F 49 °F 62 °F (1999)
Min Temperature 44 °F 33 °F 28 °F (2003)
Degree Days  
Heating Degree Days 14    
Growing Degree Days 2 (Base 50)    
Moisture  
Dew Point 48 °F    
Average Humidity 97    
Maximum Humidity 100    
Minimum Humidity 66    
Precipitation  
Precipitation 0.31 in - - ()
Sea Level Pressure  
Sea Level Pressure 29.52 in    
Wind  
Wind Speed 18 mph (SSW)    
Max Wind Speed 26 mph    
Max Gust Speed 38 mph    
Visibility 4 miles    
Events Fog , Rain    
Averages and records for this station are not official NWS values.
T = Trace of Precipitation, MM = Missing Value Source: NWS Daily Summary

Daily Weather History Graph

Daily Weather History Graph

Search for Another Location

Airport:

Trip Planner

Search our weather history database for the weather conditions in past years. The results will help you decide how hot, cold, wet, or windy it might be!

Date:

Astronomy

Apr. 08, 2014 Rise Set
Actual Time 6:13 AM EDT 7:15 PM EDT
Civil Twilight 5:45 AM EDT 7:43 PM EDT
Nautical Twilight 5:11 AM EDT 8:17 PM EDT
Astronomical Twilight 4:36 AM EDT 8:52 PM EDT
Moon 1:01 PM EDT (4/8) 2:29 AM EDT (4/8)
Length of Visible Light 13h 58m
Length of Day
13h 01m
Waxing Gibbous, 62% of the Moon is Illuminated
Apr 8
Waxing Gibbous
Apr 15
Full
Apr 22
Last Quarter
Apr 29
New
May 6
First Quarter

Hourly Weather History & Observations

Time (EDT) Temp. Windchill Dew Point Humidity Pressure Visibility Wind Dir Wind Speed Gust Speed Precip Events Conditions
12:15 AM 46.4 °F 39.0 °F 46.4 °F 100% 29.88 in 3.0 mi SE 19.6 mph 31.1 mph N/A   Overcast
12:35 AM 46.4 °F 38.3 °F 46.4 °F 100% 29.87 in 3.0 mi SE 23.0 mph 33.4 mph N/A   Overcast
12:55 AM 46.4 °F 38.7 °F 46.4 °F 100% 29.84 in 2.5 mi ESE 20.7 mph 31.1 mph N/A   Overcast
1:15 AM 48.2 °F - 46.4 °F 93% 29.80 in 4.0 mi ESE 26.5 mph 33.4 mph N/A   Overcast
1:35 AM 48.2 °F - 48.2 °F 100% 29.79 in 4.0 mi ESE 25.3 mph 33.4 mph N/A   Overcast
1:55 AM 48.2 °F - 48.2 °F 100% 29.77 in 3.0 mi ESE 23.0 mph 38.0 mph N/A   Overcast
2:15 AM 48.2 °F - 48.2 °F 100% 29.74 in 6.0 mi ESE 24.2 mph 34.5 mph N/A   Overcast
2:35 AM 48.2 °F - 46.4 °F 93% 29.73 in 3.0 mi SE 24.2 mph 32.2 mph N/A Rain Light Rain
2:55 AM 48.2 °F - 48.2 °F 100% 29.72 in 3.0 mi SE 18.4 mph 29.9 mph N/A Rain Light Rain
3:15 AM 48.2 °F - 46.4 °F 93% 29.68 in 5.0 mi ESE 23.0 mph 31.1 mph N/A   Overcast
3:35 AM 48.2 °F - 48.2 °F 100% 29.67 in 5.0 mi ESE 23.0 mph - N/A   Overcast
3:55 AM 46.4 °F 38.7 °F 46.4 °F 100% 29.66 in 4.0 mi ESE 20.7 mph 29.9 mph N/A   Overcast
4:15 AM 46.4 °F 39.0 °F 46.4 °F 100% 29.65 in 1.8 mi SE 19.6 mph 27.6 mph N/A   Overcast
4:35 AM 46.4 °F 40.1 °F 46.4 °F 100% 29.63 in 1.0 mi SE 15.0 mph 23.0 mph N/A   Overcast
4:55 AM 46.4 °F 41.1 °F 46.4 °F 100% 29.62 in 1.2 mi SE 11.5 mph - N/A   Overcast
5:15 AM 48.2 °F - 48.2 °F 100% 29.60 in 7.0 mi SSE 11.5 mph - N/A   Overcast
5:35 AM 48.2 °F - 48.2 °F 100% 29.58 in 3.0 mi SSE 10.4 mph - N/A Rain Light Rain
5:55 AM 48.2 °F - 48.2 °F 100% 29.58 in 0.8 mi South 11.5 mph - N/A   Overcast
6:15 AM 50.0 °F - 50.0 °F 100% 29.56 in 0.2 mi SSE 10.4 mph - N/A Fog Fog
6:35 AM 50.0 °F - 50.0 °F 100% 29.56 in 0.2 mi South 9.2 mph - N/A Fog Fog
6:55 AM 51.8 °F - 51.8 °F 100% 29.54 in 0.2 mi SSE 11.5 mph - N/A Fog Fog
7:15 AM 51.8 °F - 51.8 °F 100% 29.53 in 0.2 mi South 11.5 mph - N/A Fog Fog
7:35 AM 51.8 °F - 51.8 °F 100% 29.53 in 2.0 mi South 11.5 mph 18.4 mph N/A Rain Light Rain
7:55 AM 51.8 °F - 51.8 °F 100% 29.52 in 0.2 mi South 6.9 mph - N/A Rain Light Rain
8:15 AM 53.6 °F - 53.6 °F 100% 29.51 in 1.8 mi South 16.1 mph 23.0 mph N/A   Overcast
8:35 AM 55.4 °F - 55.4 °F 100% 29.50 in 0.2 mi SSW 15.0 mph - N/A Rain Light Rain
8:55 AM 57.2 °F - 57.2 °F 100% 29.49 in 1.2 mi SSW 17.3 mph 26.5 mph N/A   Overcast
9:15 AM 57.2 °F - 57.2 °F 100% 29.48 in 0.8 mi SSW 20.7 mph 26.5 mph N/A   Overcast
9:35 AM 57.2 °F - 57.2 °F 100% 29.48 in 0.5 mi SSW 25.3 mph 35.7 mph N/A   Light Drizzle
9:55 AM 59.0 °F - 59.0 °F 100% 29.48 in 2.5 mi SW 24.2 mph 34.5 mph N/A   Overcast
10:15 AM 57.2 °F - 57.2 °F 100% 29.47 in 4.0 mi SW 23.0 mph 32.2 mph N/A   Overcast
10:35 AM 55.4 °F - 55.4 °F 100% 29.46 in 3.0 mi SW 20.7 mph - N/A   Overcast
10:55 AM 55.4 °F - 55.4 °F 100% 29.46 in 1.5 mi SW 21.9 mph 32.2 mph N/A   Overcast
11:15 AM 53.6 °F - 53.6 °F 100% 29.46 in 2.5 mi SW 17.3 mph 26.5 mph N/A Rain Light Rain
11:35 AM 51.8 °F - 51.8 °F 100% 29.46 in 4.0 mi WSW 17.3 mph 27.6 mph N/A   Overcast
11:55 AM 51.8 °F - 51.8 °F 100% 29.45 in 0.5 mi SW 17.3 mph 23.0 mph N/A Rain Light Rain
12:15 PM 51.8 °F - 51.8 °F 100% 29.44 in 0.2 mi SW 18.4 mph 25.3 mph N/A Fog Fog
12:35 PM 51.8 °F - 51.8 °F 100% 29.43 in 0.2 mi SW 19.6 mph 25.3 mph N/A Fog Fog
12:55 PM 51.8 °F - 51.8 °F 100% 29.43 in 0.8 mi SW 17.3 mph 26.5 mph N/A   Overcast
1:15 PM 50.0 °F - 50.0 °F 100% 29.43 in 0.5 mi SW 16.1 mph 26.5 mph N/A   Overcast
1:35 PM 51.8 °F - 51.8 °F 100% 29.41 in 2.5 mi SW 17.3 mph 24.2 mph N/A   Overcast
1:55 PM 50.0 °F - 50.0 °F 100% 29.42 in 1.8 mi SW 16.1 mph 25.3 mph N/A   Overcast
2:15 PM 50.0 °F - 50.0 °F 100% 29.42 in 0.2 mi SW 17.3 mph 23.0 mph N/A Fog Fog
2:35 PM 50.0 °F - 50.0 °F 100% 29.42 in 0.5 mi SSW 16.1 mph 23.0 mph N/A   Overcast
2:55 PM 50.0 °F - 50.0 °F 100% 29.42 in 0.8 mi SW 10.4 mph - N/A   Overcast
3:15 PM 50.0 °F - 50.0 °F 100% 29.41 in 2.5 mi SW 15.0 mph 24.2 mph N/A   Overcast
3:35 PM 50.0 °F - 50.0 °F 100% 29.41 in 1.2 mi SW 15.0 mph 21.9 mph N/A   Overcast
3:55 PM 50.0 °F - 50.0 °F 100% 29.40 in 1.0 mi SSW 12.7 mph 21.9 mph N/A   Overcast
4:15 PM 50.0 °F - 50.0 °F 100% 29.41 in 1.0 mi SW 16.1 mph - N/A   Overcast
4:35 PM 48.2 °F - 48.2 °F 100% 29.41 in 0.2 mi SW 19.6 mph 25.3 mph N/A Fog Fog
4:55 PM 48.2 °F - 48.2 °F 100% 29.42 in 0.2 mi SW 16.1 mph 21.9 mph N/A Fog Fog
5:15 PM 48.2 °F - 48.2 °F 100% 29.41 in 0.2 mi SW 17.3 mph 23.0 mph N/A Fog Fog
5:35 PM 48.2 °F - 48.2 °F 100% 29.42 in 0.2 mi SW 15.0 mph - N/A Fog Fog
5:55 PM 46.4 °F 41.5 °F 46.4 °F 100% 29.41 in 0.2 mi SW 10.4 mph 17.3 mph N/A Fog Fog
6:15 PM 46.4 °F 41.5 °F 46.4 °F 100% 29.41 in 0.5 mi SW 10.4 mph - N/A Fog Fog
6:35 PM 46.4 °F 41.1 °F 46.4 °F 100% 29.42 in 2.5 mi SW 11.5 mph - N/A   Overcast
6:55 PM 46.4 °F 40.1 °F 46.4 °F 100% 29.41 in 8.0 mi SW 15.0 mph - N/A   Mostly Cloudy
7:15 PM 46.4 °F 39.5 °F 46.4 °F 100% 29.41 in 10.0 mi SW 17.3 mph - N/A   Scattered Clouds
7:35 PM 46.4 °F 39.8 °F 46.4 °F 100% 29.42 in 10.0 mi SW 16.1 mph - N/A   Clear
7:55 PM 46.4 °F 39.0 °F 46.4 °F 100% 29.42 in 10.0 mi SW 19.6 mph - N/A   Clear
8:15 PM 46.4 °F 39.8 °F 46.4 °F 100% 29.43 in 10.0 mi WSW 16.1 mph 24.2 mph N/A   Partly Cloudy
8:35 PM 46.4 °F 39.8 °F 44.6 °F 93% 29.43 in 10.0 mi WSW 16.1 mph 21.9 mph N/A   Clear
8:55 PM 46.4 °F 40.1 °F 42.8 °F 87% 29.45 in 10.0 mi WSW 15.0 mph 23.0 mph N/A   Clear
9:15 PM 44.6 °F 37.2 °F 42.8 °F 93% 29.46 in 10.0 mi WSW 17.3 mph - N/A   Clear
9:35 PM 44.6 °F 38.1 °F 41.0 °F 87% 29.46 in 10.0 mi WSW 13.8 mph - N/A   Partly Cloudy
9:55 PM 44.6 °F 38.1 °F 41.0 °F 87% 29.47 in 10.0 mi West 13.8 mph - N/A   Scattered Clouds
10:15 PM 44.6 °F 39.2 °F 41.0 °F 87% 29.48 in 10.0 mi West 10.4 mph - N/A   Scattered Clouds
10:35 PM 44.6 °F 39.7 °F 42.8 °F 93% 29.49 in 10.0 mi WNW 9.2 mph 15.0 mph N/A   Partly Cloudy
10:55 PM 46.4 °F 40.1 °F 39.2 °F 76% 29.49 in 10.0 mi WNW 15.0 mph - N/A   Clear
11:15 PM 48.2 °F - 37.4 °F 66% 29.51 in 10.0 mi WNW 13.8 mph 21.9 mph N/A   Clear
11:35 PM 46.4 °F 41.9 °F 37.4 °F 71% 29.51 in 10.0 mi WNW 9.2 mph 18.4 mph N/A   Clear
11:55 PM 44.6 °F 40.7 °F 37.4 °F 76% 29.51 in 10.0 mi WNW 6.9 mph 13.8 mph N/A   Clear